Date,TemperatureHighF,TemperatureAvgF,TemperatureLowF,DewpointHighF,DewpointAvgF,DewpointLowF,HumidityHigh,HumidityAvg,HumidityLow,PressureMaxIn,PressureMinIn,WindSpeedMaxMPH,WindSpeedAvgMPH,GustSpeedMaxMPH,PrecipitationSumIn
2013-10-1,81.0,62.0,45.7,53.0,48.2,43.5,93,65,31,30.02,29.90,9,2,10,0.01
2013-10-2,79.5,62.7,50.0,51.1,45.7,33.5,88,58,19,30.02,29.91,15,3,17,0.00
2013-10-3,75.8,64.6,50.5,41.9,33.6,18.7,70,36,12,30.09,29.96,19,5,21,0.00
2013-10-4,82.4,71.8,60.2,34.3,25.7,19.9,36,19,10,30.08,30.00,18,5,22,0.00
2013-10-5,86.4,64.8,44.6,39.7,34.4,27.3,71,38,12,30.19,30.08,10,1,13,0.00
2013-10-6,86.6,63.7,43.5,41.7,36.5,28.9,76,42,13,30.13,29.99,9,1,11,0.00
2013-10-7,85.4,62.3,44.8,49.7,40.5,26.5,75,50,12,30.00,29.85,10,1,13,0.00
2013-10-8,78.0,60.0,44.5,48.9,44.6,40.8,94,61,30,29.92,29.71,11,2,13,0.00
2013-10-9,73.5,60.3,47.6,46.7,43.0,41.4,82,56,33,29.76,29.61,15,2,16,0.00
2013-10-10,72.8,56.6,46.2,51.4,45.3,40.2,92,68,36,30.01,29.75,12,2,16,0.00
2013-10-11,67.0,52.1,45.0,52.1,47.2,42.8,96,85,53,30.10,29.98,9,2,15,0.00
2013-10-12,69.3,53.4,40.7,52.1,45.8,39.3,97,78,51,30.02,29.88,11,2,13,0.01
2013-10-13,75.3,57.1,42.2,49.4,44.8,39.6,93,68,32,30.07,29.93,11,2,16,0.00
2013-10-14,81.6,59.1,41.7,46.6,41.1,36.7,92,59,21,30.13,29.99,13,1,13,0.00
2013-10-15,85.6,60.5,41.4,45.0,37.0,30.4,85,50,14,30.05,29.93,9,1,14,0.00
2013-10-16,85.3,60.6,41.1,42.0,36.4,30.3,81,47,14,30.09,29.99,8,1,13,0.00
2013-10-17,84.3,59.6,42.3,47.1,38.5,32.6,87,52,16,30.09,29.95,9,2,12,0.00
2013-10-18,78.5,55.9,40.9,50.1,44.2,39.1,99,71,27,30.06,29.98,9,2,11,0.01
2013-10-19,86.3,57.8,40.0,49.6,43.1,37.6,93,66,18,30.09,29.97,7,1,10,0.00
2013-10-20,77.7,54.2,41.9,51.3,45.6,40.3,96,77,34,30.03,29.90,8,2,12,0.00
2013-10-21,72.5,53.6,46.1,53.2,48.0,44.7,97,84,49,30.02,29.91,7,2,9,0.00
2013-10-22,77.3,53.4,44.6,54.5,47.8,43.5,97,84,43,30.03,29.92,12,2,12,0.00
2013-10-23,72.4,51.9,44.7,53.4,47.5,43.6,97,87,49,29.99,29.89,8,2,13,0.01
2013-10-24,66.9,51.9,46.2,51.6,47.7,45.1,96,87,57,30.11,29.97,8,2,11,0.00
2013-10-25,70.4,52.9,41.6,53.0,46.4,39.9,100,81,51,30.19,30.08,8,1,10,0.01
2013-10-26,82.9,55.6,38.7,51.3,45.0,36.8,95,73,28,30.16,30.01,8,1,12,0.00
2013-10-27,63.0,51.9,47.2,51.5,47.2,42.4,97,85,61,30.03,29.64,14,3,16,0.00
2013-10-28,66.2,53.6,40.9,48.2,44.0,37.9,95,72,46,29.83,29.66,9,2,12,0.00
2013-10-29,65.2,53.3,45.7,49.4,46.1,42.9,92,78,52,30.06,29.82,10,2,12,0.00
2013-10-30,67.9,51.4,38.6,50.1,43.4,37.1,96,77,48,30.16,30.05,10,1,13,0.00
2013-10-31,76.1,54.2,38.7,48.6,42.6,36.1,93,69,35,30.19,30.06,10,1,13,0.00